Terminal Aerodrome Forecast
Issued by NWS

Home | Current Version | Previous Version | Text Only | Print | Product List | Glossary On
Versions: 1 2 3 4 5 6 7 8 9 10 11 12 13 14 15 16 17 18 19 20 21 22 23 24 25 26 27 28 29 30 31 32 33
000
FTUS45 KGJT 221731
TAFDRO
TAF
KDRO 221731Z 2218/2318 11008KT P6SM SCT027 SCT060 BKN200
     FM221900 17008KT P6SM VCTS SCT070CB BKN100
     FM230300 32006KT P6SM VCSH BKN100
     FM230800 03004KT P6SM SCT100
     FM231500 VRB03KT P6SM SCT100=

USA.gov is the U.S. government's official web portal to all federal, state and local government web resources and services.